METAR Data
IDs: Format: Raw Decoded Include TAF

Data at: 1245 UTC 21 Oct 2018

NZCH 211230Z AUTO 04005KT 9999 NCD 11/09 Q1025 NOSIG
NZCH 211200Z AUTO 08006KT 040V100 9999 NCD 13/09 Q1025 NOSIG
NZCH 211130Z AUTO 08006KT 9999 FEW100/// 13/10 Q1025 NOSIG
NZCH 211100Z AUTO 09007KT 9999 NCD 13/10 Q1025 NOSIG
NZCH 211030Z AUTO 06007KT 9999 NCD 13/10 Q1025 NOSIG
NZCH 211000Z AUTO 08008KT 9999 NCD 14/10 Q1025 NOSIG

TAF NZCH 211149Z 2112/2212 06005KT CAVOK
  BECMG 2113/2115 0500 FG BKN004
  BECMG 2120/2122 9999 NSC
  TEMPO 2121/2200 BKN010
  BECMG 2123/2201 06015KT
  TEMPO 2209/2212 BKN012